Terminal Aerodrome Forecast
Issued by NWS

Home | Current Version | Previous Version | Text Only | Print | Product List | Glossary On
Versions: 1 2 3 4 5 6 7 8 9 10 11 12 13 14 15 16 17 18 19 20 21 22 23 24 25 26 27 28
671
FTAK31 PAFA 240539
TAFATA
TAF
PATA 240539Z 2406/2506 VRB06KT P6SM VCSH SCT080 OVC110
     FM241100 VRB03KT P6SM VCSH BKN025 OVC050
     FM242300 26008G15KT P6SM OVC050=

USA.gov is the U.S. government's official web portal to all federal, state and local government web resources and services.